Observation data for Morton on 08/12/2020      Previous  Date       Current Mesonet Observations  Soil Data  Daily Summary Page  Observations in Plain Language
KMNS 120500Z 11008KT 26/12 A3002 RMK A01 T02640120  RH  042%=      5-min Rain = 0
KMNS 120505Z 10009KT 26/12 A3002 RMK A01 T02620122  RH  043%=      5-min Rain = 0
KMNS 120510Z 11010KT 26/12 A3002 RMK A01 T02620122  RH  043%=      5-min Rain = 0
KMNS 120515Z 11010KT 26/12 A3002 RMK A01 T02640122  RH  043%=      5-min Rain = 0
KMNS 120520Z 11010KT 26/12 A3002 RMK A01 T02620123  RH  043%=      5-min Rain = 0
KMNS 120525Z 11010KT 26/12 A3002 RMK A01 T02620122  RH  043%=      5-min Rain = 0
KMNS 120530Z 12010KT 26/12 A3003 RMK A01 T02620121  RH  043%=      5-min Rain = 0
KMNS 120535Z 12011KT 26/12 A3003 RMK A01 T02630120  RH  042%=      5-min Rain = 0
KMNS 120540Z 12012KT 27/12 A3003 RMK A01 T02650118  RH  042%=      5-min Rain = 0
KMNS 120545Z 12011KT 27/12 A3003 RMK A01 T02660117  RH  041%=      5-min Rain = 0
KMNS 120550Z 12011KT 27/12 A3003 RMK A01 T02670116  RH  040%=      5-min Rain = 0
KMNS 120555Z 12011KT 27/12 A3003 RMK A01 T02670115  RH  040%=      5-min Rain = 0
KMNS 120600Z 12010KT 27/11 A3003 RMK A01 T02660114  RH  040%=      5-min Rain = 0
KMNS 120605Z 13010KT 27/11 A3003 RMK A01 T02650114  RH  040%=      5-min Rain = 0
KMNS 120610Z 13009KT 26/12 A3003 RMK A01 T02610118  RH  042%=      5-min Rain = 0
KMNS 120615Z 14009KT 26/12 A3002 RMK A01 T02610117  RH  042%=      5-min Rain = 0
KMNS 120620Z 14009KT 26/11 A3002 RMK A01 T02630114  RH  041%=      5-min Rain = 0
KMNS 120625Z 14009KT 26/11 A3002 RMK A01 T02620112  RH  041%=      5-min Rain = 0
KMNS 120630Z 14008KT 26/11 A3002 RMK A01 T02600111  RH  041%=      5-min Rain = 0
KMNS 120635Z 13007KT 26/11 A3002 RMK A01 T02570112  RH  042%=      5-min Rain = 0
KMNS 120640Z 13006KT 25/12 A3002 RMK A01 T02520115  RH  044%=      5-min Rain = 0
KMNS 120645Z 14005KT 25/12 A3002 RMK A01 T02510115  RH  044%=      5-min Rain = 0
KMNS 120650Z 14006KT 25/12 A3001 RMK A01 T02480115  RH  045%=      5-min Rain = 0
KMNS 120655Z 15007KT 25/11 A3001 RMK A01 T02490112  RH  044%=      5-min Rain = 0
KMNS 120700Z 15006KT 25/11 A3001 RMK A01 T02500110  RH  043%=      5-min Rain = 0
KMNS 120705Z 15006KT 25/11 A3001 RMK A01 T02510108  RH  042%=      5-min Rain = 0
KMNS 120710Z 15007KT 25/11 A3001 RMK A01 T02510108  RH  042%=      5-min Rain = 0
KMNS 120715Z 15006KT 25/11 A3001 RMK A01 T02510108  RH  042%=      5-min Rain = 0
KMNS 120720Z 14005KT 25/11 A3001 RMK A01 T02480110  RH  043%=      5-min Rain = 0
KMNS 120725Z 14005KT 24/11 A3002 RMK A01 T02440111  RH  045%=      5-min Rain = 0
KMNS 120730Z 15005KT 24/11 A3002 RMK A01 T02420111  RH  045%=      5-min Rain = 0
KMNS 120735Z 16006KT 24/11 A3002 RMK A01 T02440108  RH  044%=      5-min Rain = 0
KMNS 120740Z 17006KT 25/11 A3002 RMK A01 T02470107  RH  043%=      5-min Rain = 0
KMNS 120745Z 18006KT 24/11 A3002 RMK A01 T02440108  RH  044%=      5-min Rain = 0
KMNS 120750Z 18007KT 24/11 A3002 RMK A01 T02420108  RH  044%=      5-min Rain = 0
KMNS 120755Z 18008KT 24/11 A3002 RMK A01 T02440106  RH  043%=      5-min Rain = 0
KMNS 120800Z 19007KT 24/11 A3003 RMK A01 T02440106  RH  043%=      5-min Rain = 0
KMNS 120805Z 20007KT 24/11 A3003 RMK A01 T02400108  RH  045%=      5-min Rain = 0
KMNS 120810Z 20008KT 24/11 A3003 RMK A01 T02390108  RH  045%=      5-min Rain = 0
KMNS 120815Z 19008KT 24/11 A3003 RMK A01 T02390108  RH  045%=      5-min Rain = 0
KMNS 120820Z 19007KT 24/11 A3003 RMK A01 T02380108  RH  045%=      5-min Rain = 0
KMNS 120825Z 19007KT 24/11 A3003 RMK A01 T02360108  RH  046%=      5-min Rain = 0
KMNS 120830Z 18007KT 23/11 A3003 RMK A01 T02330109  RH  047%=      5-min Rain = 0
KMNS 120835Z 19007KT 23/11 A3003 RMK A01 T02310109  RH  048%=      5-min Rain = 0
KMNS 120840Z 20007KT 23/11 A3003 RMK A01 T02300108  RH  048%=      5-min Rain = 0
KMNS 120845Z 20007KT 23/11 A3003 RMK A01 T02310108  RH  047%=      5-min Rain = 0
KMNS 120850Z 20007KT 23/11 A3003 RMK A01 T02320108  RH  047%=      5-min Rain = 0
KMNS 120855Z 20007KT 23/11 A3003 RMK A01 T02310108  RH  047%=      5-min Rain = 0
KMNS 120900Z 20007KT 23/11 A3003 RMK A01 T02330107  RH  047%=      5-min Rain = 0
KMNS 120905Z 20008KT 23/11 A3003 RMK A01 T02340107  RH  046%=      5-min Rain = 0
KMNS 120910Z 20007KT 23/11 A3003 RMK A01 T02310109  RH  048%=      5-min Rain = 0
KMNS 120915Z 20007KT 23/11 A3003 RMK A01 T02260111  RH  050%=      5-min Rain = 0
KMNS 120920Z 21006KT 23/11 A3003 RMK A01 T02250111  RH  050%=      5-min Rain = 0
KMNS 120925Z 21007KT 23/11 A3003 RMK A01 T02280110  RH  049%=      5-min Rain = 0
KMNS 120930Z 21007KT 23/11 A3002 RMK A01 T02310110  RH  048%=      5-min Rain = 0
KMNS 120935Z 21008KT 23/11 A3002 RMK A01 T02340108  RH  047%=      5-min Rain = 0
KMNS 120940Z 21008KT 24/11 A3002 RMK A01 T02370108  RH  046%=      5-min Rain = 0
KMNS 120945Z 20009KT 24/11 A3002 RMK A01 T02380108  RH  045%=      5-min Rain = 0
KMNS 120950Z 19008KT 23/11 A3002 RMK A01 T02340110  RH  047%=      5-min Rain = 0
KMNS 120955Z 19006KT 23/11 A3003 RMK A01 T02280112  RH  050%=      5-min Rain = 0
KMNS 121000Z 20005KT 23/11 A3003 RMK A01 T02260113  RH  051%=      5-min Rain = 0
KMNS 121005Z 19006KT 23/11 A3003 RMK A01 T02260113  RH  051%=      5-min Rain = 0
KMNS 121010Z 19006KT 22/11 A3003 RMK A01 T02240114  RH  052%=      5-min Rain = 0
KMNS 121015Z 19007KT 22/12 A3003 RMK A01 T02220115  RH  053%=      5-min Rain = 0
KMNS 121020Z 19007KT 22/12 A3003 RMK A01 T02220115  RH  052%=      5-min Rain = 0
KMNS 121025Z 20007KT 22/12 A3003 RMK A01 T02210116  RH  053%=      5-min Rain = 0
KMNS 121030Z 21008KT 22/12 A3003 RMK A01 T02220116  RH  053%=      5-min Rain = 0
KMNS 121035Z 20008KT 23/12 A3003 RMK A01 T02250115  RH  052%=      5-min Rain = 0
KMNS 121040Z 20008KT 23/12 A3003 RMK A01 T02250116  RH  052%=      5-min Rain = 0
KMNS 121045Z 19008KT 22/12 A3003 RMK A01 T02200118  RH  054%=      5-min Rain = 0
KMNS 121050Z 18007KT 22/12 A3003 RMK A01 T02180118  RH  055%=      5-min Rain = 0
KMNS 121055Z 18007KT 22/12 A3003 RMK A01 T02220116  RH  053%=      5-min Rain = 0
KMNS 121100Z 18008KT 22/12 A3003 RMK A01 T02220115  RH  053%=      5-min Rain = 0
KMNS 121105Z 18008KT 22/12 A3003 RMK A01 T02220115  RH  053%=      5-min Rain = 0
KMNS 121110Z 19008KT 22/12 A3003 RMK A01 T02190116  RH  054%=      5-min Rain = 0
KMNS 121115Z 19008KT 22/12 A3003 RMK A01 T02170116  RH  055%=      5-min Rain = 0
KMNS 121120Z 20007KT 21/12 A3003 RMK A01 T02140117  RH  056%=      5-min Rain = 0
KMNS 121125Z 19008KT 21/12 A3003 RMK A01 T02110117  RH  057%=      5-min Rain = 0
KMNS 121130Z 19008KT 21/12 A3003 RMK A01 T02100118  RH  058%=      5-min Rain = 0
KMNS 121135Z 19007KT 21/12 A3003 RMK A01 T02090118  RH  058%=      5-min Rain = 0
KMNS 121140Z 19007KT 21/12 A3003 RMK A01 T02090119  RH  058%=      5-min Rain = 0
KMNS 121145Z 20007KT 21/12 A3003 RMK A01 T02100119  RH  058%=      5-min Rain = 0
KMNS 121150Z 21008KT 21/12 A3003 RMK A01 T02130118  RH  057%=      5-min Rain = 0
KMNS 121155Z 20009KT 22/12 A3003 RMK A01 T02190116  RH  054%=      5-min Rain = 0
KMNS 121200Z 20009KT 22/12 A3003 RMK A01 T02210116  RH  053%=      5-min Rain = 0
KMNS 121205Z 20008KT 22/12 A3003 RMK A01 T02210116  RH  053%=      5-min Rain = 0
KMNS 121210Z 19008KT 22/12 A3003 RMK A01 T02180117  RH  055%=      5-min Rain = 0
KMNS 121215Z 20008KT 21/12 A3003 RMK A01 T02140118  RH  056%=      5-min Rain = 0
KMNS 121220Z 20009KT 22/12 A3003 RMK A01 T02170119  RH  056%=      5-min Rain = 0
KMNS 121225Z 20009KT 22/12 A3003 RMK A01 T02190119  RH  055%=      5-min Rain = 0
KMNS 121230Z 21008KT 22/12 A3003 RMK A01 T02210119  RH  055%=      5-min Rain = 0
KMNS 121235Z 20009KT 22/12 A3003 RMK A01 T02240120  RH  053%=      5-min Rain = 0
KMNS 121240Z 19009KT 22/12 A3004 RMK A01 T02230121  RH  054%=      5-min Rain = 0
KMNS 121245Z 18007KT 22/12 A3004 RMK A01 T02230121  RH  054%=      5-min Rain = 0
KMNS 121250Z 19007KT 22/12 A3004 RMK A01 T02240123  RH  055%=      5-min Rain = 0
KMNS 121255Z 19007KT 22/12 A3004 RMK A01 T02230124  RH  055%=      5-min Rain = 0
KMNS 121300Z 18007KT 22/13 A3004 RMK A01 T02240125  RH  056%=      5-min Rain = 0
KMNS 121305Z 18007KT 23/13 A3004 RMK A01 T02250126  RH  056%=      5-min Rain = 0
KMNS 121310Z 18008KT 23/13 A3004 RMK A01 T02270126  RH  055%=      5-min Rain = 0
KMNS 121315Z 18008KT 23/13 A3004 RMK A01 T02310126  RH  054%=      5-min Rain = 0
KMNS 121320Z 18009KT 23/13 A3004 RMK A01 T02340126  RH  053%=      5-min Rain = 0
KMNS 121325Z 19009KT 24/13 A3004 RMK A01 T02370128  RH  052%=      5-min Rain = 0
KMNS 121330Z 19009KT 24/13 A3004 RMK A01 T02390129  RH  052%=      5-min Rain = 0
KMNS 121335Z 19010KT 24/13 A3004 RMK A01 T02420129  RH  051%=      5-min Rain = 0
KMNS 121340Z 19009KT 25/13 A3004 RMK A01 T02450131  RH  051%=      5-min Rain = 0
KMNS 121345Z 19010KT 25/13 A3004 RMK A01 T02480131  RH  050%=      5-min Rain = 0
KMNS 121350Z 20011KT 25/13 A3004 RMK A01 T02500132  RH  050%=      5-min Rain = 0
KMNS 121355Z 20010KT 26/13 A3004 RMK A01 T02550133  RH  049%=      5-min Rain = 0
KMNS 121400Z 20011KT 26/13 A3004 RMK A01 T02600134  RH  048%=      5-min Rain = 0
KMNS 121405Z 20013KT 26/13 A3004 RMK A01 T02620134  RH  047%=      5-min Rain = 0
KMNS 121410Z 20015G20KT 26/13 A3004 RMK A01 T02640134  RH  046%=      5-min Rain = 0
KMNS 121415Z 19015KT 27/14 A3004 RMK A01 T02660135  RH  046%=      5-min Rain = 0
KMNS 121420Z 19014KT 27/14 A3004 RMK A01 T02690136  RH  046%=      5-min Rain = 0
KMNS 121425Z 19015G20KT 27/14 A3005 RMK A01 T02720135  RH  045%=      5-min Rain = 0
KMNS 121430Z 20013G19KT 27/14 A3005 RMK A01 T02740136  RH  044%=      5-min Rain = 0
KMNS 121435Z 19015KT 28/13 A3005 RMK A01 T02760134  RH  043%=      5-min Rain = 0
KMNS 121440Z 19015KT 28/13 A3005 RMK A01 T02800134  RH  042%=      5-min Rain = 0
KMNS 121445Z 19013KT 28/13 A3004 RMK A01 T02830134  RH  042%=      5-min Rain = 0
KMNS 121450Z 20014G19KT 29/13 A3004 RMK A01 T02850133  RH  041%=      5-min Rain = 0
KMNS 121455Z 20013KT 29/13 A3004 RMK A01 T02850132  RH  041%=      5-min Rain = 0
KMNS 121500Z 19014KT 29/13 A3005 RMK A01 T02880132  RH  040%=      5-min Rain = 0
KMNS 121505Z 19011KT 29/13 A3005 RMK A01 T02930134  RH  039%=      5-min Rain = 0
KMNS 121510Z 19010KT 29/13 A3005 RMK A01 T02940133  RH  039%=      5-min Rain = 0
KMNS 121515Z 18011KT 30/13 A3005 RMK A01 T02970131  RH  038%=      5-min Rain = 0
KMNS 121520Z 18011KT 30/13 A3005 RMK A01 T02970132  RH  038%=      5-min Rain = 0
KMNS 121525Z 18012KT 30/13 A3005 RMK A01 T03000132  RH  037%=      5-min Rain = 0
KMNS 121530Z 19011KT 30/13 A3005 RMK A01 T03000132  RH  037%=      5-min Rain = 0
KMNS 121535Z 19011KT 30/13 A3005 RMK A01 T03020132  RH  037%=      5-min Rain = 0
KMNS 121540Z 18012KT 30/13 A3005 RMK A01 T03040131  RH  036%=      5-min Rain = 0
KMNS 121545Z 18011KT 31/13 A3005 RMK A01 T03080133  RH  036%=      5-min Rain = 0
KMNS 121550Z 18012KT 31/13 A3004 RMK A01 T03080132  RH  036%=      5-min Rain = 0
KMNS 121555Z 20012KT 31/13 A3004 RMK A01 T03090132  RH  035%=      5-min Rain = 0
KMNS 121600Z 18012KT 31/13 A3004 RMK A01 T03130131  RH  034%=      5-min Rain = 0
KMNS 121605Z 19012KT 32/13 A3005 RMK A01 T03160132  RH  034%=      5-min Rain = 0
KMNS 121610Z 20012KT 32/13 A3005 RMK A01 T03160128  RH  033%=      5-min Rain = 0
KMNS 121615Z 20013G18KT 32/13 A3005 RMK A01 T03190125  RH  032%=      5-min Rain = 0
KMNS 121620Z 19013KT 32/13 A3005 RMK A01 T03200125  RH  032%=      5-min Rain = 0
KMNS 121625Z 20012G17KT 32/13 A3005 RMK A01 T03210126  RH  032%=      5-min Rain = 0
KMNS 121630Z 21011KT 33/13 A3005 RMK A01 T03270125  RH  030%=      5-min Rain = 0
KMNS 121635Z 20014KT 33/12 A3005 RMK A01 T03290119  RH  029%=      5-min Rain = 0
KMNS 121640Z 20011G16KT 33/12 A3005 RMK A01 T03320124  RH  029%=      5-min Rain = 0
KMNS 121645Z 20012KT 33/12 A3005 RMK A01 T03320120  RH  029%=      5-min Rain = 0
KMNS 121650Z 19012KT 33/12 A3005 RMK A01 T03320120  RH  029%=      5-min Rain = 0
KMNS 121655Z 20011KT 34/12 A3005 RMK A01 T03350121  RH  028%=      5-min Rain = 0
KMNS 121700Z 20010G17KT 34/12 A3005 RMK A01 T03360122  RH  028%=      5-min Rain = 0
KMNS 121705Z 20009G15KT 34/12 A3005 RMK A01 T03380122  RH  028%=      5-min Rain = 0
KMNS 121710Z 20011G17KT 34/12 A3005 RMK A01 T03390118  RH  027%=      5-min Rain = 0
KMNS 121715Z 20010KT 34/12 A3004 RMK A01 T03420120  RH  027%=      5-min Rain = 0
KMNS 121720Z 20011KT 35/12 A3004 RMK A01 T03470115  RH  025%=      5-min Rain = 0
KMNS 121725Z 20011G16KT 35/12 A3004 RMK A01 T03470116  RH  026%=      5-min Rain = 0
KMNS 121730Z 21011KT 35/11 A3004 RMK A01 T03490114  RH  025%=      5-min Rain = 0
KMNS 121735Z 21011KT 35/11 A3004 RMK A01 T03480114  RH  025%=      5-min Rain = 0
KMNS 121740Z 21010G16KT 35/12 A3004 RMK A01 T03520115  RH  025%=      5-min Rain = 0
KMNS 121745Z 20011KT 35/12 A3004 RMK A01 T03540117  RH  025%=      5-min Rain = 0
KMNS 121750Z 22011G16KT 35/12 A3004 RMK A01 T03540116  RH  025%=      5-min Rain = 0
KMNS 121755Z 21009KT 36/12 A3004 RMK A01 T03560118  RH  025%=      5-min Rain = 0
KMNS 121800Z 22010G15KT 36/12 A3004 RMK A01 T03580118  RH  024%=      5-min Rain = 0
KMNS 121805Z 22008G15KT 36/12 A3004 RMK A01 T03580117  RH  024%=      5-min Rain = 0
KMNS 121810Z 21009KT 36/12 A3004 RMK A01 T03640120  RH  024%=      5-min Rain = 0
KMNS 121815Z 23010G15KT 36/11 A3004 RMK A01 T03610113  RH  023%=      5-min Rain = 0
KMNS 121820Z 22010G15KT 36/11 A3003 RMK A01 T03620111  RH  023%=      5-min Rain = 0
KMNS 121825Z 22009KT 36/11 A3003 RMK A01 T03640111  RH  022%=      5-min Rain = 0
KMNS 121830Z 21009G14KT 36/11 A3003 RMK A01 T03620107  RH  022%=      5-min Rain = 0
KMNS 121835Z 22008G13KT 37/11 A3003 RMK A01 T03660108  RH  022%=      5-min Rain = 0
KMNS 121840Z 20009KT 37/11 A3002 RMK A01 T03670107  RH  022%=      5-min Rain = 0
KMNS 121845Z 22010KT 37/11 A3002 RMK A01 T03690106  RH  021%=      5-min Rain = 0
KMNS 121850Z 22007KT 37/10 A3002 RMK A01 T03710103  RH  021%=      5-min Rain = 0
KMNS 121855Z 20008G13KT 37/10 A3002 RMK A01 T03720103  RH  020%=      5-min Rain = 0
KMNS 121900Z 20008KT 37/10 A3002 RMK A01 T03730101  RH  020%=      5-min Rain = 0
KMNS 121905Z 19008KT 38/10 A3001 RMK A01 T03760100  RH  020%=      5-min Rain = 0
KMNS 121910Z 20008G15KT 37/10 A3001 RMK A01 T03730100  RH  020%=      5-min Rain = 0
KMNS 121915Z 21010G15KT 37/10 A3001 RMK A01 T03740098  RH  019%=      5-min Rain = 0
KMNS 121920Z 21006KT 38/10 A3001 RMK A01 T03750099  RH  019%=      5-min Rain = 0
KMNS 121925Z 21007G18KT 38/10 A30 RMK A01 T03780099  RH  019%=      5-min Rain = 0
KMNS 121930Z 22007G12KT 38/10 A30 RMK A01 T03790096  RH  019%=      5-min Rain = 0
KMNS 121935Z 19007G12KT 38/09 A30 RMK A01 T03790093  RH  018%=      5-min Rain = 0
KMNS 121940Z 20005KT 38/09 A30 RMK A01 T03810093  RH  018%=      5-min Rain = 0
KMNS 121945Z 18007KT 38/09 A2999 RMK A01 T03820093  RH  018%=      5-min Rain = 0
KMNS 121950Z 19006G11KT 38/09 A2999 RMK A01 T03810091  RH  018%=      5-min Rain = 0
KMNS 121955Z 19006KT 38/09 A2999 RMK A01 T03820089  RH  018%=      5-min Rain = 0
KMNS 122000Z 18008KT 38/09 A2999 RMK A01 T03770091  RH  018%=      5-min Rain = 0
KMNS 122005Z 18008G13KT 37/09 A2999 RMK A01 T03690086  RH  018%=      5-min Rain = 0
KMNS 122010Z 16006KT 37/09 A2999 RMK A01 T03650086  RH  019%=      5-min Rain = 0
KMNS 122015Z 19005KT 36/09 A2999 RMK A01 T03630085  RH  019%=      5-min Rain = 0
KMNS 122020Z 20003KT 36/09 A2998 RMK A01 T03640086  RH  019%=      5-min Rain = 0
KMNS 122025Z 18004KT 37/09 A2998 RMK A01 T03650090  RH  019%=      5-min Rain = 0
KMNS 122030Z 19008KT 36/10 A2998 RMK A01 T03620096  RH  021%=      5-min Rain = 0
KMNS 122035Z 19007KT 36/10 A2998 RMK A01 T03610095  RH  020%=      5-min Rain = 0
KMNS 122040Z 18007KT 36/09 A2998 RMK A01 T03620092  RH  020%=      5-min Rain = 0
KMNS 122045Z 19007KT 36/09 A2998 RMK A01 T03610092  RH  020%=      5-min Rain = 0
KMNS 122050Z 21007KT 36/09 A2998 RMK A01 T03590089  RH  020%=      5-min Rain = 0
KMNS 122055Z 24005KT 35/09 A2998 RMK A01 T03530088  RH  020%=      5-min Rain = 0
KMNS 122100Z 22004KT 35/10 A2998 RMK A01 T03510100  RH  022%=      5-min Rain = 0
KMNS 122105Z 24006G11KT 35/10 A2998 RMK A01 T03510096  RH  022%=      5-min Rain = 0
KMNS 122110Z 25008KT 34/09 A2998 RMK A01 T03440094  RH  022%=      5-min Rain = 0
KMNS 122115Z 25004KT 34/09 A2998 RMK A01 T03420094  RH  023%=      5-min Rain = 0
KMNS 122120Z 26003KT 34/10 A2998 RMK A01 T03440102  RH  024%=      5-min Rain = 0
KMNS 122125Z 23005KT 35/10 A2997 RMK A01 T03530104  RH  023%=      5-min Rain = 0
KMNS 122130Z 23007KT 36/09 A2997 RMK A01 T03640093  RH  020%=      5-min Rain = 0
KMNS 122135Z 22008KT 37/09 A2996 RMK A01 T03700092  RH  019%=      5-min Rain = 0
KMNS 122140Z 23009KT 37/08 A2997 RMK A01 T03740084  RH  018%=      5-min Rain = 0
KMNS 122145Z 23012G18KT 37/10 A2997 RMK A01 T03740095  RH  019%=      5-min Rain = 0
KMNS 122150Z 23011KT 37/09 A2997 RMK A01 T03700089  RH  019%=      5-min Rain = 0
KMNS 122155Z 23012KT 37/09 A2997 RMK A01 T03720087  RH  018%=      5-min Rain = 0
KMNS 122200Z 22013KT 37/09 A2996 RMK A01 T03720085  RH  018%=      5-min Rain = 0
KMNS 122205Z 21012KT 37/08 A2997 RMK A01 T03740078  RH  017%=      5-min Rain = 0
KMNS 122210Z 21013G21KT 38/08 A2997 RMK A01 T03780079  RH  017%=      5-min Rain = 0
KMNS 122215Z 22014G20KT 37/08 A2997 RMK A01 T03650084  RH  019%=      5-min Rain = 0
KMNS 122220Z 20012KT 37/07 A2996 RMK A01 T03710073  RH  017%=      5-min Rain = 0
KMNS 122225Z 21010G15KT 38/08 A2996 RMK A01 T03790075  RH  016%=      5-min Rain = 0
KMNS 122230Z 21012KT 38/07 A2996 RMK A01 T03760070  RH  016%=      5-min Rain = 0
KMNS 122235Z 21013KT 38/07 A2996 RMK A01 T03770071  RH  016%=      5-min Rain = 0
KMNS 122240Z 21012KT 38/07 A2996 RMK A01 T03750072  RH  016%=      5-min Rain = 0
KMNS 122245Z 21010KT 38/08 A2996 RMK A01 T03760076  RH  017%=      5-min Rain = 0
KMNS 122250Z 20010KT 38/07 A2996 RMK A01 T03780067  RH  015%=      5-min Rain = 0
KMNS 122255Z 20010KT 38/06 A2996 RMK A01 T03780062  RH  015%=      5-min Rain = 0
KMNS 122300Z 19009KT 38/06 A2996 RMK A01 T03810064  RH  015%=      5-min Rain = 0
KMNS 122305Z 20008KT 38/06 A2996 RMK A01 T03810061  RH  014%=      5-min Rain = 0
KMNS 122310Z 19009KT 38/06 A2995 RMK A01 T03820062  RH  015%=      5-min Rain = 0
KMNS 122315Z 20007KT 38/06 A2995 RMK A01 T03810060  RH  014%=      5-min Rain = 0
KMNS 122320Z 19008KT 38/06 A2995 RMK A01 T03800059  RH  014%=      5-min Rain = 0
KMNS 122325Z 18007KT 38/07 A2995 RMK A01 T03830066  RH  015%=      5-min Rain = 0
KMNS 122330Z 20008KT 38/07 A2995 RMK A01 T03810070  RH  015%=      5-min Rain = 0
KMNS 122335Z 19007KT 38/07 A2994 RMK A01 T03780071  RH  016%=      5-min Rain = 0
KMNS 122340Z 21008KT 38/07 A2994 RMK A01 T03770071  RH  016%=      5-min Rain = 0
KMNS 122345Z 21007KT 38/07 A2994 RMK A01 T03750072  RH  016%=      5-min Rain = 0
KMNS 122350Z 21006KT 38/07 A2994 RMK A01 T03760071  RH  016%=      5-min Rain = 0
KMNS 122355Z 21008KT 38/07 A2994 RMK A01 T03760071  RH  016%=      5-min Rain = 0
KMNS 130000Z 20008KT 37/07 A2994 RMK A01 T03740073  RH  016%=      5-min Rain = 0
KMNS 130005Z 20008KT 37/08 A2994 RMK A01 T03720075  RH  017%=      5-min Rain = 0
KMNS 130010Z 21009KT 37/07 A2994 RMK A01 T03690067  RH  016%=      5-min Rain = 0
KMNS 130015Z 21011KT 37/06 A2994 RMK A01 T03670056  RH  015%=      5-min Rain = 0
KMNS 130020Z 21008G13KT 37/06 A2994 RMK A01 T03670059  RH  015%=      5-min Rain = 0
KMNS 130025Z 19009KT 36/07 A2994 RMK A01 T03640066  RH  016%=      5-min Rain = 0
KMNS 130030Z 19009KT 36/06 A2994 RMK A01 T03640062  RH  016%=      5-min Rain = 0
KMNS 130035Z 18008KT 36/06 A2994 RMK A01 T03630059  RH  016%=      5-min Rain = 0
KMNS 130040Z 18008KT 36/06 A2994 RMK A01 T03610055  RH  015%=      5-min Rain = 0
KMNS 130045Z 18008KT 36/05 A2994 RMK A01 T03590051  RH  015%=      5-min Rain = 0
KMNS 130050Z 18009KT 36/05 A2994 RMK A01 T03560050  RH  015%=      5-min Rain = 0
KMNS 130055Z 18009KT 35/05 A2994 RMK A01 T03520053  RH  016%=      5-min Rain = 0
KMNS 130100Z 18008KT 35/06 A2994 RMK A01 T03480056  RH  017%=      5-min Rain = 0
KMNS 130105Z 19009KT 34/06 A2995 RMK A01 T03410060  RH  018%=      5-min Rain = 0
KMNS 130110Z 19010KT 34/06 A2995 RMK A01 T03380059  RH  018%=      5-min Rain = 0
KMNS 130115Z 19009KT 33/06 A2995 RMK A01 T03330061  RH  019%=      5-min Rain = 0
KMNS 130120Z 20008KT 33/06 A2995 RMK A01 T03280063  RH  020%=      5-min Rain = 0
KMNS 130125Z 20008KT 33/07 A2995 RMK A01 T03270065  RH  020%=      5-min Rain = 0
KMNS 130130Z 20008KT 32/07 A2995 RMK A01 T03240068  RH  021%=      5-min Rain = 0
KMNS 130135Z 20008G13KT 33/07 A2995 RMK A01 T03250066  RH  020%=      5-min Rain = 0
KMNS 130140Z 21008KT 33/07 A2995 RMK A01 T03250065  RH  020%=      5-min Rain = 0
KMNS 130145Z 20008KT 32/07 A2995 RMK A01 T03220066  RH  021%=      5-min Rain = 0
KMNS 130150Z 21008KT 32/07 A2995 RMK A01 T03180068  RH  022%=      5-min Rain = 0
KMNS 130155Z 21008KT 32/07 A2995 RMK A01 T03160069  RH  022%=      5-min Rain = 0
KMNS 130200Z 19009KT 31/07 A2996 RMK A01 T03130072  RH  023%=      5-min Rain = 0
KMNS 130205Z 20009KT 30/08 A2996 RMK A01 T03040078  RH  025%=      5-min Rain = 0
KMNS 130210Z 21009KT 31/08 A2996 RMK A01 T03050075  RH  024%=      5-min Rain = 0
KMNS 130215Z 19009KT 31/08 A2996 RMK A01 T03070076  RH  024%=      5-min Rain = 0
KMNS 130220Z 20008KT 30/08 A2997 RMK A01 T02950081  RH  027%=      5-min Rain = 0
KMNS 130225Z 21010G18KT 30/08 A2998 RMK A01 T03020075  RH  025%=      5-min Rain = 0
KMNS 130230Z 20010G15KT 31/07 A2998 RMK A01 T03090070  RH  023%=      5-min Rain = 0
KMNS 130235Z 20008G13KT 31/07 A2998 RMK A01 T03090070  RH  023%=      5-min Rain = 0
KMNS 130240Z 16006KT 30/08 A2998 RMK A01 T03000080  RH  026%=      5-min Rain = 0
KMNS 130245Z 14006KT 29/09 A2998 RMK A01 T02860085  RH  029%=      5-min Rain = 0
KMNS 130250Z 15007KT 28/08 A2999 RMK A01 T02840083  RH  029%=      5-min Rain = 0
KMNS 130255Z 16008KT 29/08 A2999 RMK A01 T02880079  RH  028%=      5-min Rain = 0
KMNS 130300Z 18008KT 29/08 A2999 RMK A01 T02890079  RH  028%=      5-min Rain = 0
KMNS 130305Z 20008KT 29/08 A2999 RMK A01 T02850080  RH  028%=      5-min Rain = 0
KMNS 130310Z 19008KT 29/08 A2999 RMK A01 T02870081  RH  028%=      5-min Rain = 0
KMNS 130315Z 16007KT 29/08 A2999 RMK A01 T02860080  RH  028%=      5-min Rain = 0
KMNS 130320Z 15007KT 29/08 A30 RMK A01 T02850081  RH  029%=      5-min Rain = 0
KMNS 130325Z 15008KT 28/08 A30 RMK A01 T02810081  RH  029%=      5-min Rain = 0
KMNS 130330Z 15009KT 28/08 A30 RMK A01 T02810080  RH  029%=      5-min Rain = 0
KMNS 130335Z 15009KT 28/08 A30 RMK A01 T02820079  RH  029%=      5-min Rain = 0
KMNS 130340Z 16009KT 28/08 A30 RMK A01 T02830078  RH  028%=      5-min Rain = 0
KMNS 130345Z 16009KT 29/08 A30 RMK A01 T02850078  RH  028%=      5-min Rain = 0
KMNS 130350Z 16008G13KT 28/08 A30 RMK A01 T02840077  RH  028%=      5-min Rain = 0
KMNS 130355Z 16008KT 28/08 A3001 RMK A01 T02830077  RH  028%=      5-min Rain = 0
KMNS 130400Z 16007KT 28/08 A3001 RMK A01 T02830078  RH  028%=      5-min Rain = 0
KMNS 130405Z 16007KT 28/08 A3001 RMK A01 T02830079  RH  029%=      5-min Rain = 0
KMNS 130410Z 17008KT 29/08 A3001 RMK A01 T02850081  RH  029%=      5-min Rain = 0
KMNS 130415Z 17009KT 29/09 A3001 RMK A01 T02860085  RH  029%=      5-min Rain = 0
KMNS 130420Z 18010KT 29/09 A3001 RMK A01 T02890088  RH  029%=      5-min Rain = 0
KMNS 130425Z 18010G15KT 29/09 A3002 RMK A01 T02890090  RH  030%=      5-min Rain = 0
KMNS 130430Z 18010KT 29/09 A3002 RMK A01 T02910092  RH  030%=      5-min Rain = 0
KMNS 130435Z 18010KT 29/09 A3001 RMK A01 T02900093  RH  030%=      5-min Rain = 0
KMNS 130440Z 18009KT 29/09 A3001 RMK A01 T02890094  RH  030%=      5-min Rain = 0
KMNS 130445Z 19008KT 29/10 A3002 RMK A01 T02860096  RH  031%=      5-min Rain = 0
KMNS 130450Z 20007KT 28/10 A3002 RMK A01 T02810098  RH  033%=      5-min Rain = 0
KMNS 130455Z 22007KT 28/10 A3002 RMK A01 T02770099  RH  034%=      5-min Rain = 0

Page generated in 0.0089 seconds.